• Join FlightAware (Why Join?)
  • Login
  • US Flag 
01:56AM EDT


 

Airport Tracker/Info


-or-


 

Live Flight TrackerFlight Track Log ✈ AWI3919 ✈ 21-May-2012 ✈ KLYH - KCLT

Flight Track Log - Related Links

Times and Time Zones

All times are in EDT time to prevent confusion due to time zone crossing. See the AWI3919 flight status page for this flight to view local times or setup timezone preferences in your user account.

Time Position Orientation Groundspeed Altitude Reporting Facility
EDT Latitude Longitude Course Direction KTS MPH feet Rate Location/Type
05:32AM 37.2007 -79.2940 37° Northeast  Level FlightAware Approximate
05:33AM 37.2672 -79.2300 213° Southwest 182 209 2,300  Level Washington Center
05:38AM 36.9458 -79.4903 214° Southwest 302 348 12,100 1,920 Climbing Washington Center
05:39AM 36.8772 -79.5492 213° Southwest 302 348 14,100 1,980 Climbing Washington Center
05:40AM 36.8022 -79.6100 213° Southwest 314 361 16,100 1,260 Climbing Washington Center
05:42AM 36.6481 -79.7333 213° Southwest 344 396 18,000 600 Climbing Atlanta Center
05:43AM 36.5547 -79.8081 213° Southwest 359 413 18,000  Level Atlanta Center
05:44AM 36.4675 -79.8797 213° Southwest 369 425 18,000  Level Atlanta Center
05:45AM 36.3781 -79.9514 214° Southwest 375 432 18,000  Level Atlanta Center
05:46AM 36.2889 -80.0256 214° Southwest 387 445 18,000 -60 Level Atlanta Center
05:47AM 36.2017 -80.0994 215° Southwest 387 445 17,900 -660 Descending Atlanta Center
05:48AM 36.1164 -80.1731 215° Southwest 397 457 16,700 -1,200 Descending Atlanta Center
05:49AM 36.0269 -80.2492 218° Southwest 397 457 15,600 -1,200 Descending Atlanta Center
05:49AM 35.9761 -80.2978 218° Southwest 390 449 14,900 -1,320 Descending Atlanta Center
05:50AM 35.9336 -80.3381 220° Southwest 392 451 14,300 -1,260 Descending Atlanta Center
05:50AM 35.8811 -80.3917 211° Southwest 379 436 13,500 -840 Descending Atlanta Center
05:51AM 35.8014 -80.4517 211° Southwest 324 373 13,000 -720 Descending Atlanta Center
05:52AM 35.7319 -80.5033 192° South 294 338 12,100 -1,080 Descending Atlanta Center
05:53AM 35.6636 -80.5217 195° South 273 314 11,000 -1,320 Descending Atlanta Center
05:54AM 35.5914 -80.5453 194° South 260 299 9,600 -1,380 Descending Atlanta Center
05:56AM 35.4739 -80.5814 229° Southwest 250 288 7,100 -1,320 Descending FAA TRACON SMA TRACON (SMA)
05:57AM 35.4464 -80.6206 229° Southwest 245 282 6,300 -840 Descending FAA TRACON SMA TRACON (SMA)
05:57AM 35.4150 -80.6656 229° Southwest 225 259 6,000 -300 Descending FAA TRACON SMA TRACON (SMA)
05:58AM 35.3914 -80.6989 228° Southwest 192 221 5,900 -660 Descending FAA TRACON SMA TRACON (SMA)
05:59AM 35.3717 -80.7258 228° Southwest 193 222 5,200 -780 Descending FAA TRACON SMA TRACON (SMA)
05:59AM 35.3472 -80.7594 229° Southwest 192 221 4,900 -840 Descending FAA TRACON SMA TRACON (SMA)
06:00AM 35.3239 -80.7928 228° Southwest 187 215 4,100 -1,260 Descending FAA TRACON SMA TRACON (SMA)
06:01AM 35.3000 -80.8247 228° Southwest 183 211 3,200 -1,200 Descending FAA TRACON SMA TRACON (SMA)
06:01AM 35.2775 -80.8556 229° Southwest 177 204 2,500 -1,080 Descending FAA TRACON SMA TRACON (SMA)
06:02AM 35.2597 -80.8806 228° Southwest 164 189 1,800 -900 Descending FAA TRACON SMA TRACON (SMA)
06:03AM 35.2292 -80.9219 229° Southwest 152 175 1,000 -540 Descending FAA TRACON SMA TRACON (SMA)
06:04AM 35.2250 -80.9278 229° Southwest 152 175 900 -180 Descending FAA TRACON SMA TRACON (SMA)